createdAt,value
2019-01-03T00:02:05.967Z,-2.40
2019-01-03T00:11:15.678Z,-2.50
2019-01-03T00:14:15.764Z,-2.50
2019-01-03T00:32:32.916Z,-2.50
2019-01-03T01:00:09.883Z,-2.50
2019-01-03T01:09:08.652Z,-2.40
2019-01-03T01:12:18.788Z,-2.50
2019-01-03T01:27:28.295Z,-2.50
2019-01-03T01:48:54.631Z,-2.50
2019-01-03T01:51:41.362Z,-2.50
2019-01-03T02:31:52.669Z,-2.60
2019-01-03T03:12:03.523Z,-2.90
2019-01-03T03:54:55.411Z,-2.90
2019-01-03T03:57:42.327Z,-2.90
2019-01-03T04:00:28.966Z,-2.90
2019-01-03T04:06:40.951Z,-3.00
2019-01-03T04:09:35.422Z,-3.00
2019-01-03T04:12:20.051Z,-3.00
2019-01-03T04:15:14.341Z,-3.00
2019-01-03T04:18:12.777Z,-3.00
2019-01-03T04:20:59.556Z,-3.00
2019-01-03T04:23:56.977Z,-3.00
2019-01-03T04:26:51.442Z,-3.00
2019-01-03T04:29:54.730Z,-3.00
2019-01-03T04:32:41.479Z,-3.00
2019-01-03T04:35:28.100Z,-2.90
2019-01-03T04:38:25.182Z,-3.00
2019-01-03T04:41:19.228Z,-3.00
2019-01-03T04:46:54.663Z,-3.00
2019-01-03T04:50:01.182Z,-3.00
2019-01-03T04:52:55.209Z,-3.00
2019-01-03T04:55:52.675Z,-3.00
2019-01-03T04:58:52.790Z,-3.00
2019-01-03T05:05:17.243Z,-2.90
2019-01-03T05:08:04.043Z,-3.00
2019-01-03T05:10:49.102Z,-3.00
2019-01-03T05:13:40.197Z,-3.00
2019-01-03T05:16:40.331Z,-3.10
2019-01-03T05:19:26.803Z,-3.00
2019-01-03T05:22:13.639Z,-3.10
2019-01-03T05:25:07.595Z,-3.00
2019-01-03T05:28:07.772Z,-3.00
2019-01-03T05:30:54.558Z,-3.00
2019-01-03T05:33:38.307Z,-3.00
2019-01-03T05:36:26.651Z,-2.90
2019-01-03T05:39:26.970Z,-2.80
2019-01-03T05:42:17.808Z,-2.80
2019-01-03T05:45:23.999Z,-2.80
2019-01-03T05:48:12.338Z,-2.90
2019-01-03T05:51:11.735Z,-2.90
2019-01-03T05:54:11.995Z,-2.90
2019-01-03T05:56:58.666Z,-3.00
2019-01-03T05:59:52.547Z,-3.00
2019-01-03T06:02:49.176Z,-3.00
2019-01-03T06:05:43.505Z,-3.00
2019-01-03T06:08:30.146Z,-3.00
2019-01-03T06:11:27.205Z,-3.00
2019-01-03T06:14:21.238Z,-3.00
2019-01-03T06:17:09.500Z,-3.10
2019-01-03T06:19:56.054Z,-3.10
2019-01-03T06:22:47.187Z,-3.10
2019-01-03T06:25:33.811Z,-3.10
2019-01-03T06:28:24.043Z,-3.10
2019-01-03T06:31:21.058Z,-3.20
2019-01-03T06:34:07.807Z,-3.20
2019-01-03T06:36:56.868Z,-3.20
2019-01-03T06:39:51.027Z,-3.30
2019-01-03T06:42:37.699Z,-3.20
2019-01-03T06:45:27.143Z,-3.30
2019-01-03T06:48:14.254Z,-3.30
2019-01-03T06:51:08.685Z,-3.30
2019-01-03T06:54:08.950Z,-3.30
2019-01-03T06:57:02.987Z,-3.30
2019-01-03T06:59:49.608Z,-3.30
2019-01-03T07:02:37.882Z,-3.20
2019-01-03T07:05:37.018Z,-3.30
2019-01-03T07:11:39.827Z,-3.30
2019-01-03T07:14:26.538Z,-3.20
2019-01-03T07:20:27.200Z,-3.30
2019-01-03T07:26:23.374Z,-3.30
2019-01-03T07:29:17.730Z,-3.30
2019-01-03T07:32:25.122Z,-3.30
2019-01-03T08:12:23.983Z,-3.40
2019-01-03T08:53:02.050Z,-3.00
2019-01-03T09:05:08.766Z,-2.90
2019-01-03T09:08:16.121Z,-2.90
2019-01-03T09:11:07.501Z,-2.90
2019-01-03T09:13:54.622Z,-2.90
2019-01-03T09:16:55.091Z,-2.90
2019-01-03T09:20:01.154Z,-2.90
2019-01-03T09:23:01.287Z,-3.00
2019-01-03T09:25:55.550Z,-2.90
2019-01-03T09:28:42.343Z,-2.80
2019-01-03T09:31:27.839Z,-2.80
2019-01-03T09:37:33.102Z,-2.80
2019-01-03T09:46:12.826Z,-2.80
2019-01-03T09:49:01.235Z,-2.80
2019-01-03T09:57:40.987Z,-2.90
2019-01-03T10:00:10.356Z,-2.80
2019-01-03T10:02:58.735Z,-2.90
2019-01-03T10:09:01.947Z,-2.70
2019-01-03T10:17:55.379Z,-2.50
2019-01-03T10:20:24.706Z,-2.40
2019-01-03T10:23:13.126Z,-2.30
2019-01-03T10:25:42.678Z,-2.30
2019-01-03T10:28:31.054Z,-2.30
2019-01-03T10:34:05.691Z,-2.20
2019-01-03T10:36:35.018Z,-2.20
2019-01-03T10:39:06.300Z,-2.10
2019-01-03T10:41:35.637Z,-2.20
2019-01-03T10:44:05.171Z,-2.20
2019-01-03T10:46:53.595Z,-2.30
2019-01-03T10:58:38.855Z,-2.20
2019-01-03T11:01:27.303Z,-2.20
2019-01-03T11:03:56.622Z,-2.20
2019-01-03T11:06:45.003Z,-2.10
2019-01-03T11:15:38.729Z,-2.10
2019-01-03T11:18:27.110Z,-2.10
2019-01-03T11:21:15.531Z,-2.10
2019-01-03T11:23:45.160Z,-2.10
2019-01-03T11:26:14.489Z,-2.10
2019-01-03T11:28:43.891Z,-2.20
2019-01-03T11:31:13.226Z,-2.20
2019-01-03T11:33:42.577Z,-2.20
2019-01-03T11:36:11.930Z,-2.20
2019-01-03T11:38:41.269Z,-2.10
2019-01-03T11:41:10.701Z,-2.20
2019-01-03T11:43:40.087Z,-2.10
2019-01-03T11:46:09.510Z,-2.20
2019-01-03T11:48:38.915Z,-2.20
2019-01-03T11:51:08.266Z,-2.10
2019-01-03T11:53:37.611Z,-2.10
2019-01-03T11:56:07.047Z,-2.10
2019-01-03T11:58:36.502Z,-2.00
2019-01-03T12:01:05.840Z,-2.00
2019-01-03T12:03:35.546Z,-2.00
2019-01-03T12:06:04.950Z,-2.00
2019-01-03T12:08:34.281Z,-1.90
2019-01-03T12:11:03.689Z,-1.90
2019-01-03T12:13:33.020Z,-1.90
2019-01-03T12:16:02.358Z,-2.00
2019-01-03T12:18:31.687Z,-2.00
2019-01-03T12:21:01.094Z,-2.00
2019-01-03T12:23:30.420Z,-2.00
2019-01-03T12:25:59.758Z,-1.90
2019-01-03T12:28:29.869Z,-2.00
2019-01-03T12:30:59.306Z,-2.00
2019-01-03T12:33:28.801Z,-2.00
2019-01-03T12:35:58.217Z,-2.00
2019-01-03T12:38:27.623Z,-2.00
2019-01-03T12:40:56.962Z,-1.90
2019-01-03T12:43:26.298Z,-1.90
2019-01-03T12:45:55.645Z,-1.80
2019-01-03T12:48:25.074Z,-1.70
2019-01-03T12:50:54.463Z,-1.60
2019-01-03T12:53:23.868Z,-1.50
2019-01-03T12:55:53.211Z,-1.60
2019-01-03T12:58:22.589Z,-1.60
2019-01-03T13:00:51.995Z,-1.50
2019-01-03T13:03:40.494Z,-1.60
2019-01-03T13:06:09.867Z,-1.60
2019-01-03T13:08:39.197Z,-1.50
2019-01-03T13:11:08.731Z,-1.40
2019-01-03T13:13:38.137Z,-1.40
2019-01-03T13:16:07.552Z,-1.40
2019-01-03T13:18:36.950Z,-1.40
2019-01-03T13:21:06.362Z,-1.40
2019-01-03T13:23:35.708Z,-1.40
2019-01-03T13:26:05.034Z,-1.40
2019-01-03T13:28:34.382Z,-1.40
2019-01-03T13:31:03.720Z,-1.50
2019-01-03T13:33:33.058Z,-1.50
2019-01-03T13:36:02.391Z,-1.50
2019-01-03T13:38:31.710Z,-1.50
2019-01-03T13:41:01.063Z,-1.50
2019-01-03T13:43:30.465Z,-1.60
2019-01-03T13:51:16.431Z,-1.40
2019-01-03T13:53:45.819Z,-1.50
2019-01-03T13:56:15.154Z,-1.50
2019-01-03T13:58:44.565Z,-1.50
2019-01-03T14:01:13.922Z,-1.60
2019-01-03T14:04:02.311Z,-1.70
2019-01-03T14:34:18.926Z,-1.60
2019-01-03T14:37:07.311Z,-1.60
2019-01-03T14:48:53.243Z,-1.60
2019-01-03T14:51:41.663Z,-1.60
2019-01-03T15:15:47.335Z,-1.50
2019-01-03T15:18:16.687Z,-1.50
2019-01-03T15:21:05.064Z,-1.50
2019-01-03T15:23:53.467Z,-1.50
2019-01-03T15:38:43.635Z,-1.40
2019-01-03T15:41:32.115Z,-1.40
2019-01-03T15:44:01.568Z,-1.40
2019-01-03T15:46:30.983Z,-1.40
2019-01-03T15:49:00.402Z,-1.40
2019-01-03T15:51:48.783Z,-1.40
2019-01-03T15:54:18.159Z,-1.30
2019-01-03T15:56:47.478Z,-1.30
2019-01-03T15:59:35.854Z,-1.30
2019-01-03T16:02:24.287Z,-1.30
2019-01-03T16:14:22.982Z,-1.30
2019-01-03T16:17:11.434Z,-1.30
2019-01-03T16:19:40.812Z,-1.30
2019-01-03T16:22:30.256Z,-1.30
2019-01-03T16:28:04.779Z,-1.30
2019-01-03T16:30:53.242Z,-1.40
2019-01-03T16:33:41.762Z,-1.40
2019-01-03T16:39:16.043Z,-1.40
2019-01-03T16:41:45.394Z,-1.30
2019-01-03T16:44:14.786Z,-1.30
2019-01-03T16:47:03.255Z,-1.30
2019-01-03T16:49:51.674Z,-1.30
2019-01-03T16:52:21.246Z,-1.30
2019-01-03T16:54:50.647Z,-1.30
2019-01-03T16:57:39.055Z,-1.30
2019-01-03T17:00:09.979Z,-1.30
2019-01-03T17:02:39.299Z,-1.30
2019-01-03T17:05:08.856Z,-1.30
2019-01-03T17:07:38.266Z,-1.30
2019-01-03T17:10:10.983Z,-1.30
2019-01-03T17:12:40.442Z,-1.30
2019-01-03T17:15:09.994Z,-1.30
2019-01-03T17:17:39.394Z,-1.30
2019-01-03T17:23:37.548Z,-1.40
2019-01-03T17:32:30.659Z,-1.40
2019-01-03T17:35:19.095Z,-1.30
2019-01-03T17:38:07.522Z,-1.30
2019-01-03T17:46:46.679Z,-1.30
2019-01-03T17:49:15.994Z,-1.40
2019-01-03T17:51:45.323Z,-1.40
2019-01-03T17:54:14.638Z,-1.40
2019-01-03T17:56:43.961Z,-1.40
2019-01-03T17:59:13.314Z,-1.50
2019-01-03T18:01:42.730Z,-1.50
2019-01-03T19:59:20.346Z,-1.80
2019-01-03T20:01:49.689Z,-1.80
2019-01-03T20:04:19.054Z,-1.70
2019-01-03T20:06:48.387Z,-1.70
2019-01-03T20:09:17.727Z,-1.70
2019-01-03T20:11:47.131Z,-1.70
2019-01-03T20:14:16.454Z,-1.60
2019-01-03T20:16:45.794Z,-1.60
2019-01-03T20:19:15.142Z,-1.70
2019-01-03T20:21:44.478Z,-1.60
2019-01-03T20:24:13.802Z,-1.60
2019-01-03T20:26:43.158Z,-1.60
2019-01-03T20:29:12.493Z,-1.60
2019-01-03T20:31:41.826Z,-1.60
2019-01-03T20:34:11.162Z,-1.60
2019-01-03T20:36:40.536Z,-1.60
2019-01-03T20:39:09.928Z,-1.50
2019-01-03T20:41:39.267Z,-1.50
2019-01-03T20:44:08.595Z,-1.50
2019-01-03T20:46:37.999Z,-1.50
2019-01-03T20:49:07.334Z,-1.50
2019-01-03T20:51:36.670Z,-1.50
2019-01-03T20:54:06.003Z,-1.50
2019-01-03T20:56:35.398Z,-1.40
2019-01-03T20:59:04.954Z,-1.40
2019-01-03T21:01:34.290Z,-1.40
2019-01-03T21:04:03.618Z,-1.40
2019-01-03T21:06:32.956Z,-1.30
2019-01-03T21:09:02.356Z,-1.30
2019-01-03T21:11:31.704Z,-1.30
2019-01-03T21:14:01.178Z,-1.20
2019-01-03T21:16:30.510Z,-1.20
2019-01-03T21:18:59.843Z,-1.20
2019-01-03T21:21:29.179Z,-1.20
2019-01-03T21:23:58.506Z,-1.20
2019-01-03T21:26:27.838Z,-1.20
2019-01-03T21:28:57.169Z,-1.20
2019-01-03T21:31:26.565Z,-1.10
2019-01-03T21:33:55.908Z,-1.10
2019-01-03T21:36:25.242Z,-1.10
2019-01-03T21:38:54.570Z,-1.00
2019-01-03T21:41:23.922Z,-1.00
2019-01-03T21:43:53.259Z,-1.00
2019-01-03T21:46:22.574Z,-0.90
2019-01-03T21:48:53.174Z,-0.90
2019-01-03T21:51:22.608Z,-0.90
2019-01-03T21:54:11.039Z,-0.80
2019-01-03T21:56:40.366Z,-0.80
2019-01-03T21:59:09.695Z,-0.80
2019-01-03T22:01:39.186Z,-0.80
2019-01-03T22:04:08.519Z,-0.80
2019-01-03T22:06:37.856Z,-0.80
2019-01-03T22:09:07.373Z,-0.70
2019-01-03T22:11:36.691Z,-0.70
2019-01-03T22:14:06.019Z,-0.70
2019-01-03T22:16:35.352Z,-0.60
2019-01-03T22:19:04.726Z,-0.60
2019-01-03T22:21:34.042Z,-0.60
2019-01-03T22:24:03.363Z,-0.60
2019-01-03T22:26:32.702Z,-0.50
2019-01-03T22:29:02.014Z,-0.50
2019-01-03T22:31:31.559Z,-0.50
2019-01-03T22:34:00.878Z,-0.50
2019-01-03T22:36:30.281Z,-0.40
2019-01-03T22:38:59.603Z,-0.50
2019-01-03T22:41:28.934Z,-0.40
2019-01-03T22:43:58.255Z,-0.40
2019-01-03T22:46:27.602Z,-0.40
2019-01-03T22:48:56.940Z,-0.40
2019-01-03T22:51:26.270Z,-0.30
2019-01-03T22:53:55.607Z,-0.30
2019-01-03T22:56:24.946Z,-0.30
2019-01-03T22:58:54.275Z,-0.30
2019-01-03T23:01:23.673Z,-0.30
2019-01-03T23:03:53.002Z,-0.30
2019-01-03T23:06:22.406Z,-0.30
2019-01-03T23:08:51.726Z,-0.20
2019-01-03T23:11:21.062Z,-0.20
2019-01-03T23:13:50.385Z,-0.20
2019-01-03T23:16:19.723Z,-0.20
2019-01-03T23:18:49.050Z,-0.20
2019-01-03T23:21:18.385Z,-0.20
2019-01-03T23:23:47.707Z,-0.10
2019-01-03T23:26:17.034Z,-0.10
2019-01-03T23:29:05.407Z,-0.10
2019-01-03T23:31:34.783Z,-0.10
2019-01-03T23:34:04.112Z,-0.10
2019-01-03T23:36:33.514Z,-0.10
2019-01-03T23:39:02.942Z,-0.10
2019-01-03T23:41:32.266Z,0.00
2019-01-03T23:44:01.586Z,0.00
2019-01-03T23:46:31.014Z,0.00
2019-01-03T23:49:00.321Z,0.00
2019-01-03T23:51:29.644Z,0.00
2019-01-03T23:53:58.963Z,0.00
2019-01-03T23:56:28.288Z,0.00
2019-01-03T23:58:57.602Z,0.10
